Terminal Aerodrome Forecast
Issued by NWS Charleston, WV

Current Version | Previous Version | Graphics & Text | Print | Product List | Glossary On
Versions: 1 2 3 4 5 6 7 8 9 10 11 12 13 14 15 16 17 18 19 20 21 22
000
FTUS41 KRLX 220909 AAA
TAFPKB
TAF AMD
KPKB 220909Z 2209/2306 31012G25KT P6SM SCT250
     FM221100 35010G16KT P6SM FEW250
     FM222100 36008KT P6SM FEW250
     FM230000 36004KT P6SM FEW250=

USA.gov is the U.S. government's official web portal to all federal, state and local government web resources and services.